sensor_id;sensor_type;location;lat;lon;timestamp;temperature;humidity
67748;HTU21D;54543;50.712;6.070;2023-07-29T00:01:40;18.83;87.66
67748;HTU21D;54543;50.712;6.070;2023-07-29T00:04:07;18.85;87.60
67748;HTU21D;54543;50.712;6.070;2023-07-29T00:06:35;18.88;87.58
67748;HTU21D;54543;50.712;6.070;2023-07-29T00:09:01;18.94;87.51
67748;HTU21D;54543;50.712;6.070;2023-07-29T00:11:26;18.99;87.45
67748;HTU21D;54543;50.712;6.070;2023-07-29T00:13:52;19.05;87.44
67748;HTU21D;54543;50.712;6.070;2023-07-29T00:16:18;19.10;87.48
67748;HTU21D;54543;50.712;6.070;2023-07-29T00:18:46;19.14;87.51
67748;HTU21D;54543;50.712;6.070;2023-07-29T00:21:12;19.17;87.50
67748;HTU21D;54543;50.712;6.070;2023-07-29T00:23:37;19.20;87.43
67748;HTU21D;54543;50.712;6.070;2023-07-29T00:26:03;19.20;87.68
67748;HTU21D;54543;50.712;6.070;2023-07-29T00:28:28;19.16;87.61
67748;HTU21D;54543;50.712;6.070;2023-07-29T00:30:54;19.10;87.86
67748;HTU21D;54543;50.712;6.070;2023-07-29T00:33:20;19.03;88.23
67748;HTU21D;54543;50.712;6.070;2023-07-29T00:35:46;19.00;88.47
67748;HTU21D;54543;50.712;6.070;2023-07-29T00:38:11;18.98;88.22
67748;HTU21D;54543;50.712;6.070;2023-07-29T00:40:37;18.97;88.29
67748;HTU21D;54543;50.712;6.070;2023-07-29T00:43:03;18.93;88.92
67748;HTU21D;54543;50.712;6.070;2023-07-29T00:45:29;18.93;88.83
67748;HTU21D;54543;50.712;6.070;2023-07-29T00:47:55;18.88;89.26
67748;HTU21D;54543;50.712;6.070;2023-07-29T00:50:21;18.91;89.44
67748;HTU21D;54543;50.712;6.070;2023-07-29T00:52:49;18.93;89.63
67748;HTU21D;54543;50.712;6.070;2023-07-29T00:55:15;18.97;89.48
67748;HTU21D;54543;50.712;6.070;2023-07-29T00:57:41;19.00;89.19
67748;HTU21D;54543;50.712;6.070;2023-07-29T01:00:08;19.01;89.25
67748;HTU21D;54543;50.712;6.070;2023-07-29T01:02:35;19.01;89.27
67748;HTU21D;54543;50.712;6.070;2023-07-29T01:05:01;18.98;89.47
67748;HTU21D;54543;50.712;6.070;2023-07-29T01:13:10;18.91;89.08
67748;HTU21D;54543;50.712;6.070;2023-07-29T01:16:06;18.93;89.57
67748;HTU21D;54543;50.712;6.070;2023-07-29T01:18:36;18.95;88.76
67748;HTU21D;54543;50.712;6.070;2023-07-29T01:21:04;18.94;88.42
67748;HTU21D;54543;50.712;6.070;2023-07-29T01:23:33;18.92;88.20
67748;HTU21D;54543;50.712;6.070;2023-07-29T01:25:59;18.86;88.35
67748;HTU21D;54543;50.712;6.070;2023-07-29T01:28:25;18.85;88.45
67748;HTU21D;54543;50.712;6.070;2023-07-29T01:31:06;18.85;88.44
67748;HTU21D;54543;50.712;6.070;2023-07-29T01:33:41;18.84;88.60
67748;HTU21D;54543;50.712;6.070;2023-07-29T01:36:11;18.82;88.67
67748;HTU21D;54543;50.712;6.070;2023-07-29T01:38:41;18.84;88.42
67748;HTU21D;54543;50.712;6.070;2023-07-29T01:41:08;18.79;88.32
67748;HTU21D;54543;50.712;6.070;2023-07-29T01:43:34;18.76;88.16
67748;HTU21D;54543;50.712;6.070;2023-07-29T01:46:05;18.73;88.44
67748;HTU21D;54543;50.712;6.070;2023-07-29T01:48:31;18.65;88.63
67748;HTU21D;54543;50.712;6.070;2023-07-29T01:50:57;18.57;88.56
67748;HTU21D;54543;50.712;6.070;2023-07-29T01:53:23;18.56;88.81
67748;HTU21D;54543;50.712;6.070;2023-07-29T01:55:49;18.56;88.54
67748;HTU21D;54543;50.712;6.070;2023-07-29T01:58:14;18.52;88.58
67748;HTU21D;54543;50.712;6.070;2023-07-29T02:00:40;18.53;88.62
67748;HTU21D;54543;50.712;6.070;2023-07-29T02:03:05;18.49;88.61
67748;HTU21D;54543;50.712;6.070;2023-07-29T02:05:31;18.46;88.65
67748;HTU21D;54543;50.712;6.070;2023-07-29T02:07:57;18.42;88.61
67748;HTU21D;54543;50.712;6.070;2023-07-29T02:10:22;18.37;89.25
67748;HTU21D;54543;50.712;6.070;2023-07-29T02:12:48;18.36;89.47
67748;HTU21D;54543;50.712;6.070;2023-07-29T02:15:13;18.35;89.53
67748;HTU21D;54543;50.712;6.070;2023-07-29T02:17:41;18.34;89.76
67748;HTU21D;54543;50.712;6.070;2023-07-29T02:20:07;18.33;90.13
67748;HTU21D;54543;50.712;6.070;2023-07-29T02:22:34;18.32;89.72
67748;HTU21D;54543;50.712;6.070;2023-07-29T02:25:00;18.32;89.85
67748;HTU21D;54543;50.712;6.070;2023-07-29T02:27:26;18.30;89.83
67748;HTU21D;54543;50.712;6.070;2023-07-29T02:29:53;18.33;89.76
67748;HTU21D;54543;50.712;6.070;2023-07-29T02:32:18;18.34;89.63
67748;HTU21D;54543;50.712;6.070;2023-07-29T02:34:44;18.34;89.52
67748;HTU21D;54543;50.712;6.070;2023-07-29T02:37:10;18.36;89.35
67748;HTU21D;54543;50.712;6.070;2023-07-29T02:39:36;18.34;89.23
67748;HTU21D;54543;50.712;6.070;2023-07-29T02:42:03;18.32;89.15
67748;HTU21D;54543;50.712;6.070;2023-07-29T02:44:29;18.27;89.37
67748;HTU21D;54543;50.712;6.070;2023-07-29T02:46:54;18.28;89.34
67748;HTU21D;54543;50.712;6.070;2023-07-29T02:49:24;18.25;89.35
67748;HTU21D;54543;50.712;6.070;2023-07-29T02:51:50;18.24;89.32
67748;HTU21D;54543;50.712;6.070;2023-07-29T02:54:15;18.19;89.45
67748;HTU21D;54543;50.712;6.070;2023-07-29T02:56:41;18.15;89.57
67748;HTU21D;54543;50.712;6.070;2023-07-29T02:59:06;18.11;89.97
67748;HTU21D;54543;50.712;6.070;2023-07-29T03:01:32;18.08;89.70
67748;HTU21D;54543;50.712;6.070;2023-07-29T03:03:57;18.02;89.68
67748;HTU21D;54543;50.712;6.070;2023-07-29T03:06:23;18.00;89.76
67748;HTU21D;54543;50.712;6.070;2023-07-29T03:08:49;17.98;89.79
67748;HTU21D;54543;50.712;6.070;2023-07-29T03:11:15;17.97;89.83
67748;HTU21D;54543;50.712;6.070;2023-07-29T03:13:42;17.97;89.83
67748;HTU21D;54543;50.712;6.070;2023-07-29T03:16:12;17.95;89.78
67748;HTU21D;54543;50.712;6.070;2023-07-29T03:18:38;17.95;89.75
67748;HTU21D;54543;50.712;6.070;2023-07-29T03:21:04;17.93;89.59
67748;HTU21D;54543;50.712;6.070;2023-07-29T03:23:30;17.92;89.67
67748;HTU21D;54543;50.712;6.070;2023-07-29T03:25:57;17.90;89.67
67748;HTU21D;54543;50.712;6.070;2023-07-29T03:28:28;17.89;89.57
67748;HTU21D;54543;50.712;6.070;2023-07-29T03:30:55;17.84;89.51
67748;HTU21D;54543;50.712;6.070;2023-07-29T03:33:20;17.81;89.72
67748;HTU21D;54543;50.712;6.070;2023-07-29T03:35:46;17.79;89.86
67748;HTU21D;54543;50.712;6.070;2023-07-29T03:38:13;17.76;89.89
67748;HTU21D;54543;50.712;6.070;2023-07-29T03:40:39;17.73;90.12
67748;HTU21D;54543;50.712;6.070;2023-07-29T03:43:05;17.73;90.31
67748;HTU21D;54543;50.712;6.070;2023-07-29T03:45:31;17.72;90.49
67748;HTU21D;54543;50.712;6.070;2023-07-29T03:47:56;17.72;90.55
67748;HTU21D;54543;50.712;6.070;2023-07-29T03:50:22;17.74;90.53
67748;HTU21D;54543;50.712;6.070;2023-07-29T03:52:48;17.73;90.45
67748;HTU21D;54543;50.712;6.070;2023-07-29T03:55:13;17.73;90.44
67748;HTU21D;54543;50.712;6.070;2023-07-29T03:57:39;17.75;90.46
67748;HTU21D;54543;50.712;6.070;2023-07-29T04:00:05;17.75;90.34
67748;HTU21D;54543;50.712;6.070;2023-07-29T04:02:31;17.75;90.39
67748;HTU21D;54543;50.712;6.070;2023-07-29T04:04:57;17.76;90.51
67748;HTU21D;54543;50.712;6.070;2023-07-29T04:07:22;17.75;90.60
67748;HTU21D;54543;50.712;6.070;2023-07-29T04:09:48;17.75;90.66
67748;HTU21D;54543;50.712;6.070;2023-07-29T04:12:14;17.75;90.58
67748;HTU21D;54543;50.712;6.070;2023-07-29T04:14:40;17.74;91.09
67748;HTU21D;54543;50.712;6.070;2023-07-29T04:17:07;17.76;91.31
67748;HTU21D;54543;50.712;6.070;2023-07-29T04:19:33;17.76;91.55
67748;HTU21D;54543;50.712;6.070;2023-07-29T04:21:58;17.79;91.73
67748;HTU21D;54543;50.712;6.070;2023-07-29T04:24:24;17.84;91.37
67748;HTU21D;54543;50.712;6.070;2023-07-29T04:26:49;17.87;91.15
67748;HTU21D;54543;50.712;6.070;2023-07-29T04:29:15;17.91;91.06
67748;HTU21D;54543;50.712;6.070;2023-07-29T04:31:41;17.96;92.46
67748;HTU21D;54543;50.712;6.070;2023-07-29T04:34:07;18.04;91.95
67748;HTU21D;54543;50.712;6.070;2023-07-29T04:36:33;18.07;91.40
67748;HTU21D;54543;50.712;6.070;2023-07-29T04:38:58;18.09;91.05
67748;HTU21D;54543;50.712;6.070;2023-07-29T04:41:25;18.10;90.78
67748;HTU21D;54543;50.712;6.070;2023-07-29T04:43:50;18.09;90.63
67748;HTU21D;54543;50.712;6.070;2023-07-29T04:46:16;18.10;91.27
67748;HTU21D;54543;50.712;6.070;2023-07-29T04:48:41;18.12;91.18
67748;HTU21D;54543;50.712;6.070;2023-07-29T04:51:08;18.13;92.02
67748;HTU21D;54543;50.712;6.070;2023-07-29T04:53:34;18.13;91.10
67748;HTU21D;54543;50.712;6.070;2023-07-29T04:56:02;18.11;90.64
67748;HTU21D;54543;50.712;6.070;2023-07-29T04:58:28;18.06;92.10
67748;HTU21D;54543;50.712;6.070;2023-07-29T05:00:55;18.04;91.51
67748;HTU21D;54543;50.712;6.070;2023-07-29T05:03:22;18.04;91.88
67748;HTU21D;54543;50.712;6.070;2023-07-29T05:05:47;18.03;91.95
67748;HTU21D;54543;50.712;6.070;2023-07-29T05:08:14;18.03;91.72
67748;HTU21D;54543;50.712;6.070;2023-07-29T05:10:40;18.02;91.95
67748;HTU21D;54543;50.712;6.070;2023-07-29T05:13:07;18.05;92.47
67748;HTU21D;54543;50.712;6.070;2023-07-29T05:15:32;18.08;91.89
67748;HTU21D;54543;50.712;6.070;2023-07-29T05:17:58;18.06;92.24
67748;HTU21D;54543;50.712;6.070;2023-07-29T05:20:23;18.08;91.78
67748;HTU21D;54543;50.712;6.070;2023-07-29T05:22:48;18.06;91.37
67748;HTU21D;54543;50.712;6.070;2023-07-29T05:25:14;18.05;91.60
67748;HTU21D;54543;50.712;6.070;2023-07-29T05:27:40;18.03;91.66
67748;HTU21D;54543;50.712;6.070;2023-07-29T05:30:06;18.02;91.51
67748;HTU21D;54543;50.712;6.070;2023-07-29T05:32:32;18.00;91.53
67748;HTU21D;54543;50.712;6.070;2023-07-29T05:35:00;18.00;91.47
67748;HTU21D;54543;50.712;6.070;2023-07-29T05:37:27;18.00;91.79
67748;HTU21D;54543;50.712;6.070;2023-07-29T05:39:53;18.00;91.63
67748;HTU21D;54543;50.712;6.070;2023-07-29T05:42:18;18.02;92.21
67748;HTU21D;54543;50.712;6.070;2023-07-29T05:44:44;18.05;91.95
67748;HTU21D;54543;50.712;6.070;2023-07-29T05:47:10;18.07;91.88
67748;HTU21D;54543;50.712;6.070;2023-07-29T05:49:37;18.07;91.58
67748;HTU21D;54543;50.712;6.070;2023-07-29T05:52:02;18.08;91.72
67748;HTU21D;54543;50.712;6.070;2023-07-29T05:54:28;18.09;91.47
67748;HTU21D;54543;50.712;6.070;2023-07-29T05:56:54;18.09;91.63
67748;HTU21D;54543;50.712;6.070;2023-07-29T05:59:19;18.10;91.52
67748;HTU21D;54543;50.712;6.070;2023-07-29T06:01:45;18.13;91.64
67748;HTU21D;54543;50.712;6.070;2023-07-29T06:04:10;18.18;91.55
67748;HTU21D;54543;50.712;6.070;2023-07-29T06:06:36;18.21;91.42
67748;HTU21D;54543;50.712;6.070;2023-07-29T06:09:01;18.25;91.42
67748;HTU21D;54543;50.712;6.070;2023-07-29T06:11:28;18.25;90.64
67748;HTU21D;54543;50.712;6.070;2023-07-29T06:13:53;18.23;90.52
67748;HTU21D;54543;50.712;6.070;2023-07-29T06:16:19;18.19;90.65
67748;HTU21D;54543;50.712;6.070;2023-07-29T06:18:45;18.15;90.63
67748;HTU21D;54543;50.712;6.070;2023-07-29T06:21:10;18.15;90.65
67748;HTU21D;54543;50.712;6.070;2023-07-29T06:23:43;18.14;90.69
67748;HTU21D;54543;50.712;6.070;2023-07-29T06:26:09;18.13;90.57
67748;HTU21D;54543;50.712;6.070;2023-07-29T06:28:34;18.15;90.66
67748;HTU21D;54543;50.712;6.070;2023-07-29T06:31:01;18.18;90.40
67748;HTU21D;54543;50.712;6.070;2023-07-29T06:33:27;18.18;90.06
67748;HTU21D;54543;50.712;6.070;2023-07-29T06:35:52;18.21;90.34
67748;HTU21D;54543;50.712;6.070;2023-07-29T06:38:17;18.22;90.03
67748;HTU21D;54543;50.712;6.070;2023-07-29T06:40:48;18.21;89.95
67748;HTU21D;54543;50.712;6.070;2023-07-29T06:43:14;18.21;89.69
67748;HTU21D;54543;50.712;6.070;2023-07-29T06:45:40;18.19;89.94
67748;HTU21D;54543;50.712;6.070;2023-07-29T06:48:06;18.17;89.79
67748;HTU21D;54543;50.712;6.070;2023-07-29T06:50:33;18.11;90.18
67748;HTU21D;54543;50.712;6.070;2023-07-29T06:52:58;18.11;89.94
67748;HTU21D;54543;50.712;6.070;2023-07-29T06:55:24;18.11;90.36
67748;HTU21D;54543;50.712;6.070;2023-07-29T06:57:50;18.13;90.15
67748;HTU21D;54543;50.712;6.070;2023-07-29T07:00:16;18.18;89.79
67748;HTU21D;54543;50.712;6.070;2023-07-29T07:02:42;18.19;89.61
67748;HTU21D;54543;50.712;6.070;2023-07-29T07:05:07;18.17;89.99
67748;HTU21D;54543;50.712;6.070;2023-07-29T07:07:33;18.22;89.95
67748;HTU21D;54543;50.712;6.070;2023-07-29T07:09:58;18.24;89.77
67748;HTU21D;54543;50.712;6.070;2023-07-29T07:12:24;18.28;89.63
67748;HTU21D;54543;50.712;6.070;2023-07-29T07:14:50;18.38;89.90
67748;HTU21D;54543;50.712;6.070;2023-07-29T07:17:15;18.61;89.16
67748;HTU21D;54543;50.712;6.070;2023-07-29T07:19:41;18.87;88.67
67748;HTU21D;54543;50.712;6.070;2023-07-29T07:22:07;19.10;87.57
67748;HTU21D;54543;50.712;6.070;2023-07-29T07:24:33;19.23;86.97
67748;HTU21D;54543;50.712;6.070;2023-07-29T07:26:58;19.29;86.50
67748;HTU21D;54543;50.712;6.070;2023-07-29T07:29:24;19.33;86.60
67748;HTU21D;54543;50.712;6.070;2023-07-29T07:31:53;19.39;84.13
67748;HTU21D;54543;50.712;6.070;2023-07-29T07:34:22;19.41;85.21
67748;HTU21D;54543;50.712;6.070;2023-07-29T07:36:49;19.56;84.93
67748;HTU21D;54543;50.712;6.070;2023-07-29T07:39:14;19.69;84.58
67748;HTU21D;54543;50.712;6.070;2023-07-29T07:41:41;19.77;83.19
67748;HTU21D;54543;50.712;6.070;2023-07-29T07:44:06;19.91;83.55
67748;HTU21D;54543;50.712;6.070;2023-07-29T07:46:32;20.09;82.19
67748;HTU21D;54543;50.712;6.070;2023-07-29T07:48:57;20.18;81.74
67748;HTU21D;54543;50.712;6.070;2023-07-29T07:51:23;20.13;81.39
67748;HTU21D;54543;50.712;6.070;2023-07-29T07:53:49;20.00;81.36
67748;HTU21D;54543;50.712;6.070;2023-07-29T07:56:14;19.86;82.46
67748;HTU21D;54543;50.712;6.070;2023-07-29T07:58:40;19.74;81.33
67748;HTU21D;54543;50.712;6.070;2023-07-29T08:01:07;19.67;82.63
67748;HTU21D;54543;50.712;6.070;2023-07-29T08:03:33;19.68;83.09
67748;HTU21D;54543;50.712;6.070;2023-07-29T08:05:59;19.68;82.15
67748;HTU21D;54543;50.712;6.070;2023-07-29T08:08:26;19.68;82.20
67748;HTU21D;54543;50.712;6.070;2023-07-29T08:10:56;19.61;81.14
67748;HTU21D;54543;50.712;6.070;2023-07-29T08:13:24;19.53;82.36
67748;HTU21D;54543;50.712;6.070;2023-07-29T08:15:51;19.54;82.51
67748;HTU21D;54543;50.712;6.070;2023-07-29T08:18:17;19.53;81.84
67748;HTU21D;54543;50.712;6.070;2023-07-29T08:20:53;19.52;81.52
67748;HTU21D;54543;50.712;6.070;2023-07-29T08:23:19;19.54;81.88
67748;HTU21D;54543;50.712;6.070;2023-07-29T08:25:45;19.56;81.72
67748;HTU21D;54543;50.712;6.070;2023-07-29T08:28:14;19.60;80.81
67748;HTU21D;54543;50.712;6.070;2023-07-29T08:30:40;19.68;81.29
67748;HTU21D;54543;50.712;6.070;2023-07-29T08:33:05;19.73;81.72
67748;HTU21D;54543;50.712;6.070;2023-07-29T08:35:31;19.85;81.78
67748;HTU21D;54543;50.712;6.070;2023-07-29T08:37:57;19.95;80.96
67748;HTU21D;54543;50.712;6.070;2023-07-29T08:40:27;20.02;81.04
67748;HTU21D;54543;50.712;6.070;2023-07-29T08:42:54;20.14;81.04
67748;HTU21D;54543;50.712;6.070;2023-07-29T08:45:21;20.25;80.69
67748;HTU21D;54543;50.712;6.070;2023-07-29T08:47:47;20.35;79.14
67748;HTU21D;54543;50.712;6.070;2023-07-29T08:50:15;20.48;78.34
67748;HTU21D;54543;50.712;6.070;2023-07-29T08:52:41;20.56;78.69
67748;HTU21D;54543;50.712;6.070;2023-07-29T08:55:08;20.59;77.93
67748;HTU21D;54543;50.712;6.070;2023-07-29T08:57:34;20.55;77.98
67748;HTU21D;54543;50.712;6.070;2023-07-29T09:00:00;20.49;78.38
67748;HTU21D;54543;50.712;6.070;2023-07-29T09:02:26;20.46;78.13
67748;HTU21D;54543;50.712;6.070;2023-07-29T09:04:52;20.44;78.08
67748;HTU21D;54543;50.712;6.070;2023-07-29T09:07:18;20.33;78.18
67748;HTU21D;54543;50.712;6.070;2023-07-29T09:09:44;20.27;78.40
67748;HTU21D;54543;50.712;6.070;2023-07-29T09:12:09;20.15;78.39
67748;HTU21D;54543;50.712;6.070;2023-07-29T09:14:36;20.01;78.91
67748;HTU21D;54543;50.712;6.070;2023-07-29T09:17:02;19.87;78.85
67748;HTU21D;54543;50.712;6.070;2023-07-29T09:19:27;19.73;79.44
67748;HTU21D;54543;50.712;6.070;2023-07-29T09:21:53;19.66;80.40
67748;HTU21D;54543;50.712;6.070;2023-07-29T09:24:20;19.67;80.88
67748;HTU21D;54543;50.712;6.070;2023-07-29T09:26:50;19.62;80.54
67748;HTU21D;54543;50.712;6.070;2023-07-29T09:29:16;19.52;81.02
67748;HTU21D;54543;50.712;6.070;2023-07-29T09:31:46;19.41;81.32
67748;HTU21D;54543;50.712;6.070;2023-07-29T09:34:15;19.38;81.18
67748;HTU21D;54543;50.712;6.070;2023-07-29T09:36:40;19.27;80.90
67748;HTU21D;54543;50.712;6.070;2023-07-29T09:39:11;19.16;80.79
67748;HTU21D;54543;50.712;6.070;2023-07-29T09:41:37;19.02;81.70
67748;HTU21D;54543;50.712;6.070;2023-07-29T09:44:04;18.99;82.24
67748;HTU21D;54543;50.712;6.070;2023-07-29T09:46:34;18.95;82.68
67748;HTU21D;54543;50.712;6.070;2023-07-29T09:49:01;18.91;82.75
67748;HTU21D;54543;50.712;6.070;2023-07-29T09:51:27;18.88;83.10
67748;HTU21D;54543;50.712;6.070;2023-07-29T09:53:53;18.91;83.42
67748;HTU21D;54543;50.712;6.070;2023-07-29T09:56:26;18.95;83.57
67748;HTU21D;54543;50.712;6.070;2023-07-29T09:58:53;18.98;83.65
67748;HTU21D;54543;50.712;6.070;2023-07-29T10:01:20;19.05;83.91
67748;HTU21D;54543;50.712;6.070;2023-07-29T10:03:47;19.18;84.07
67748;HTU21D;54543;50.712;6.070;2023-07-29T10:06:14;19.37;84.10
67748;HTU21D;54543;50.712;6.070;2023-07-29T10:08:39;19.65;83.72
67748;HTU21D;54543;50.712;6.070;2023-07-29T10:11:07;19.91;83.04
67748;HTU21D;54543;50.712;6.070;2023-07-29T10:13:33;20.21;82.39
67748;HTU21D;54543;50.712;6.070;2023-07-29T10:16:00;20.48;81.62
67748;HTU21D;54543;50.712;6.070;2023-07-29T10:18:28;20.69;81.13
67748;HTU21D;54543;50.712;6.070;2023-07-29T10:20:54;20.84;80.62
67748;HTU21D;54543;50.712;6.070;2023-07-29T10:23:22;20.98;80.24
67748;HTU21D;54543;50.712;6.070;2023-07-29T10:25:56;20.96;76.47
67748;HTU21D;54543;50.712;6.070;2023-07-29T10:28:23;20.85;77.35
67748;HTU21D;54543;50.712;6.070;2023-07-29T10:30:51;20.88;79.66
67748;HTU21D;54543;50.712;6.070;2023-07-29T10:33:17;20.96;79.75
67748;HTU21D;54543;50.712;6.070;2023-07-29T10:35:43;21.21;79.21
67748;HTU21D;54543;50.712;6.070;2023-07-29T10:38:09;21.47;77.97
67748;HTU21D;54543;50.712;6.070;2023-07-29T10:43:12;21.83;75.72
67748;HTU21D;54543;50.712;6.070;2023-07-29T10:45:41;21.88;75.57
67748;HTU21D;54543;50.712;6.070;2023-07-29T10:48:12;21.93;71.13
67748;HTU21D;54543;50.712;6.070;2023-07-29T10:50:37;22.07;74.66
67748;HTU21D;54543;50.712;6.070;2023-07-29T10:53:03;22.20;74.02
67748;HTU21D;54543;50.712;6.070;2023-07-29T10:55:32;22.22;72.61
67748;HTU21D;54543;50.712;6.070;2023-07-29T11:00:31;22.41;73.30
67748;HTU21D;54543;50.712;6.070;2023-07-29T11:03:06;22.56;70.40
67748;HTU21D;54543;50.712;6.070;2023-07-29T11:08:27;22.71;70.96
67748;HTU21D;54543;50.712;6.070;2023-07-29T11:10:59;22.65;69.81
67748;HTU21D;54543;50.712;6.070;2023-07-29T11:13:27;22.82;72.27
67748;HTU21D;54543;50.712;6.070;2023-07-29T11:15:54;22.86;69.62
67748;HTU21D;54543;50.712;6.070;2023-07-29T11:18:20;22.86;71.48
67748;HTU21D;54543;50.712;6.070;2023-07-29T11:20:46;22.92;71.38
67748;HTU21D;54543;50.712;6.070;2023-07-29T11:23:13;23.02;70.32
67748;HTU21D;54543;50.712;6.070;2023-07-29T11:25:39;23.10;69.32
67748;HTU21D;54543;50.712;6.070;2023-07-29T11:28:04;23.22;70.08
67748;HTU21D;54543;50.712;6.070;2023-07-29T11:30:30;23.43;70.03
67748;HTU21D;54543;50.712;6.070;2023-07-29T11:32:57;23.62;69.71
67748;HTU21D;54543;50.712;6.070;2023-07-29T11:35:23;23.56;69.02
67748;HTU21D;54543;50.712;6.070;2023-07-29T11:37:50;23.45;68.40
67748;HTU21D;54543;50.712;6.070;2023-07-29T11:40:21;23.31;67.92
67748;HTU21D;54543;50.712;6.070;2023-07-29T11:42:48;23.22;70.24
67748;HTU21D;54543;50.712;6.070;2023-07-29T11:45:16;23.17;66.28
67748;HTU21D;54543;50.712;6.070;2023-07-29T11:47:41;23.11;70.00
67748;HTU21D;54543;50.712;6.070;2023-07-29T11:50:09;23.02;69.39
67748;HTU21D;54543;50.712;6.070;2023-07-29T11:52:36;22.96;69.95
67748;HTU21D;54543;50.712;6.070;2023-07-29T11:55:03;23.12;70.11
67748;HTU21D;54543;50.712;6.070;2023-07-29T11:57:33;23.29;70.32
67748;HTU21D;54543;50.712;6.070;2023-07-29T12:00:02;23.71;69.85
67748;HTU21D;54543;50.712;6.070;2023-07-29T12:02:29;23.92;68.78
67748;HTU21D;54543;50.712;6.070;2023-07-29T12:04:55;24.04;68.37
67748;HTU21D;54543;50.712;6.070;2023-07-29T12:07:22;24.09;67.67
67748;HTU21D;54543;50.712;6.070;2023-07-29T12:09:49;23.99;67.39
67748;HTU21D;54543;50.712;6.070;2023-07-29T12:12:15;23.82;67.84
67748;HTU21D;54543;50.712;6.070;2023-07-29T12:14:45;23.60;65.97
67748;HTU21D;54543;50.712;6.070;2023-07-29T12:17:12;23.40;68.63
67748;HTU21D;54543;50.712;6.070;2023-07-29T12:19:39;23.22;69.30
67748;HTU21D;54543;50.712;6.070;2023-07-29T12:22:07;23.01;69.39
67748;HTU21D;54543;50.712;6.070;2023-07-29T12:24:35;22.83;69.87
67748;HTU21D;54543;50.712;6.070;2023-07-29T12:27:01;22.63;70.13
67748;HTU21D;54543;50.712;6.070;2023-07-29T12:29:27;22.47;70.43
67748;HTU21D;54543;50.712;6.070;2023-07-29T12:32:02;22.31;70.23
67748;HTU21D;54543;50.712;6.070;2023-07-29T12:34:30;22.13;70.79
67748;HTU21D;54543;50.712;6.070;2023-07-29T12:36:58;21.60;80.27
67748;HTU21D;54543;50.712;6.070;2023-07-29T12:39:28;20.79;81.69
67748;HTU21D;54543;50.712;6.070;2023-07-29T12:41:55;19.94;92.29
67748;HTU21D;54543;50.712;6.070;2023-07-29T12:44:23;19.40;93.43
67748;HTU21D;54543;50.712;6.070;2023-07-29T12:46:48;19.02;93.56
67748;HTU21D;54543;50.712;6.070;2023-07-29T12:49:14;18.92;94.06
67748;HTU21D;54543;50.712;6.070;2023-07-29T12:51:40;19.03;94.04
67748;HTU21D;54543;50.712;6.070;2023-07-29T12:54:06;19.10;93.64
67748;HTU21D;54543;50.712;6.070;2023-07-29T12:56:33;19.17;92.24
67748;HTU21D;54543;50.712;6.070;2023-07-29T12:58:59;19.17;92.57
67748;HTU21D;54543;50.712;6.070;2023-07-29T13:01:25;19.18;91.99
67748;HTU21D;54543;50.712;6.070;2023-07-29T13:03:51;19.20;90.99
67748;HTU21D;54543;50.712;6.070;2023-07-29T13:06:16;19.07;90.84
67748;HTU21D;54543;50.712;6.070;2023-07-29T13:08:42;18.93;90.18
67748;HTU21D;54543;50.712;6.070;2023-07-29T13:11:08;18.80;90.08
67748;HTU21D;54543;50.712;6.070;2023-07-29T13:13:34;18.58;90.28
67748;HTU21D;54543;50.712;6.070;2023-07-29T13:15:59;18.27;101.93
67748;HTU21D;54543;50.712;6.070;2023-07-29T13:18:25;17.83;108.17
67748;HTU21D;54543;50.712;6.070;2023-07-29T13:20:51;17.22;110.45
67748;HTU21D;54543;50.712;6.070;2023-07-29T13:23:16;16.94;113.30
67748;HTU21D;54543;50.712;6.070;2023-07-29T13:25:42;17.06;115.17
67748;HTU21D;54543;50.712;6.070;2023-07-29T13:28:11;17.37;117.04
67748;HTU21D;54543;50.712;6.070;2023-07-29T13:30:41;17.67;117.61
67748;HTU21D;54543;50.712;6.070;2023-07-29T13:33:07;17.87;117.66
67748;HTU21D;54543;50.712;6.070;2023-07-29T13:35:33;17.96;118.03
67748;HTU21D;54543;50.712;6.070;2023-07-29T13:37:59;18.02;118.13
67748;HTU21D;54543;50.712;6.070;2023-07-29T13:40:25;17.99;118.37
67748;HTU21D;54543;50.712;6.070;2023-07-29T13:42:50;18.04;118.50
67748;HTU21D;54543;50.712;6.070;2023-07-29T13:45:17;18.22;118.71
67748;HTU21D;54543;50.712;6.070;2023-07-29T13:47:42;18.55;118.76
67748;HTU21D;54543;50.712;6.070;2023-07-29T13:50:08;18.71;118.76
67748;HTU21D;54543;50.712;6.070;2023-07-29T13:52:34;18.79;118.89
67748;HTU21D;54543;50.712;6.070;2023-07-29T13:54:59;18.88;118.91
67748;HTU21D;54543;50.712;6.070;2023-07-29T13:57:25;18.93;118.82
67748;HTU21D;54543;50.712;6.070;2023-07-29T13:59:50;18.89;118.95
67748;HTU21D;54543;50.712;6.070;2023-07-29T14:02:16;18.82;118.94
67748;HTU21D;54543;50.712;6.070;2023-07-29T14:04:42;18.79;118.98
67748;HTU21D;54543;50.712;6.070;2023-07-29T14:07:07;18.77;118.99
67748;HTU21D;54543;50.712;6.070;2023-07-29T14:09:33;18.76;118.96
67748;HTU21D;54543;50.712;6.070;2023-07-29T14:11:58;18.79;118.99
67748;HTU21D;54543;50.712;6.070;2023-07-29T14:14:24;18.84;118.08
67748;HTU21D;54543;50.712;6.070;2023-07-29T14:16:49;18.96;116.19
67748;HTU21D;54543;50.712;6.070;2023-07-29T14:19:15;19.11;116.05
67748;HTU21D;54543;50.712;6.070;2023-07-29T14:21:40;19.35;115.75
67748;HTU21D;54543;50.712;6.070;2023-07-29T14:24:06;19.43;115.11
67748;HTU21D;54543;50.712;6.070;2023-07-29T14:26:31;19.40;114.75
67748;HTU21D;54543;50.712;6.070;2023-07-29T14:28:57;19.37;114.16
67748;HTU21D;54543;50.712;6.070;2023-07-29T14:31:23;19.27;113.71
67748;HTU21D;54543;50.712;6.070;2023-07-29T14:33:48;19.20;113.09
67748;HTU21D;54543;50.712;6.070;2023-07-29T14:36:17;19.16;112.58
67748;HTU21D;54543;50.712;6.070;2023-07-29T14:38:43;19.10;112.04
67748;HTU21D;54543;50.712;6.070;2023-07-29T14:41:08;19.02;111.32
67748;HTU21D;54543;50.712;6.070;2023-07-29T14:43:34;19.00;111.16
67748;HTU21D;54543;50.712;6.070;2023-07-29T14:46:01;19.01;110.78
67748;HTU21D;54543;50.712;6.070;2023-07-29T14:48:27;19.01;110.14
67748;HTU21D;54543;50.712;6.070;2023-07-29T14:50:52;19.05;109.75
67748;HTU21D;54543;50.712;6.070;2023-07-29T14:53:18;19.06;109.44
67748;HTU21D;54543;50.712;6.070;2023-07-29T14:55:44;19.06;109.36
67748;HTU21D;54543;50.712;6.070;2023-07-29T14:58:09;19.05;109.04
67748;HTU21D;54543;50.712;6.070;2023-07-29T15:00:35;19.11;109.23
67748;HTU21D;54543;50.712;6.070;2023-07-29T15:03:00;19.24;109.23
67748;HTU21D;54543;50.712;6.070;2023-07-29T15:05:26;19.53;109.39
67748;HTU21D;54543;50.712;6.070;2023-07-29T15:07:51;19.76;109.75
67748;HTU21D;54543;50.712;6.070;2023-07-29T15:10:17;20.03;109.91
67748;HTU21D;54543;50.712;6.070;2023-07-29T15:12:43;20.25;109.88
67748;HTU21D;54543;50.712;6.070;2023-07-29T15:15:10;20.35;109.64
67748;HTU21D;54543;50.712;6.070;2023-07-29T15:17:36;20.47;109.51
67748;HTU21D;54543;50.712;6.070;2023-07-29T15:20:02;20.56;109.35
67748;HTU21D;54543;50.712;6.070;2023-07-29T15:22:29;20.66;109.07
67748;HTU21D;54543;50.712;6.070;2023-07-29T15:24:54;20.69;108.83